Terminal Aerodrome Forecast
Issued by NWS Cleveland, OH

Home | Current Version | Previous Version | Graphics & Text | Print | Product List | Glossary On
Versions: 1 2 3 4 5 6 7 8 9 10 11 12 13 14 15 16 17 18 19
852
FTUS41 KCLE 050559 CCA
TAFMFD
TAF COR
KMFD 050559Z 0506/0606 23012G20KT 5SM BR OVC006
     FM050730 26010KT 4SM BR OVC015
     FM051600 27008KT P6SM OVC025
     FM051800 20005KT P6SM SCT250=

USA.gov is the U.S. government's official web portal to all federal, state and local government web resources and services.